Time;durP1;ratioP1;P1;durP2;ratioP2;P2;SDS_P1;SDS_P2;PMS_P1;PMS_P2;Temp;Humidity;BMP_temperature;BMP_pressure;BME280_temperature;BME280_humidity;BME280_pressure;Samples;Min_cycle;Max_cycle;Signal;HPM_P1;HPM_P2
2023/02/24 00:02:04;;;;;;;18.73;7.47;;;7.60;95.70;;;;;;4717338;30;20421;-82
2023/02/24 00:04:37;;;;;;;17.10;8.05;;;7.60;96.20;;;;;;4744652;30;20063;-82
2023/02/24 00:07:05;;;;;;;16.40;7.40;;;7.50;96.30;;;;;;4729280;30;20056;-82
2023/02/24 00:09:33;;;;;;;17.30;7.63;;;7.50;96.30;;;;;;4724904;30;20060;-82
2023/02/24 00:12:07;;;;;;;19.08;7.43;;;7.50;96.50;;;;;;4739263;30;20053;-82
2023/02/24 00:14:37;;;;;;;14.10;6.20;;;7.50;96.50;;;;;;4738239;30;20273;-82
2023/02/24 00:17:06;;;;;;;16.90;7.85;;;7.60;96.80;;;;;;4738903;30;20438;-82
2023/02/24 00:19:35;;;;;;;16.20;7.90;;;7.50;97.00;;;;;;4736560;30;20056;-82
2023/02/24 00:22:04;;;;;;;19.90;8.50;;;7.50;97.10;;;;;;4737417;30;20057;-82
2023/02/24 00:24:31;;;;;;;15.40;6.60;;;7.50;97.40;;;;;;4714186;30;20056;-82
2023/02/24 00:27:01;;;;;;;16.17;7.05;;;7.50;97.70;;;;;;4737572;30;20155;-82
2023/02/24 00:29:31;;;;;;;18.00;6.82;;;7.50;97.70;;;;;;4738905;30;20057;-82
2023/02/24 00:31:58;;;;;;;15.63;7.18;;;7.50;97.90;;;;;;4738943;30;20052;-82
2023/02/24 00:34:32;;;;;;;17.85;7.13;;;7.50;98.20;;;;;;4739077;30;20604;-82
2023/02/24 00:36:59;;;;;;;18.35;7.25;;;7.50;98.30;;;;;;4737603;30;20133;-82
2023/02/24 00:39:29;;;;;;;17.42;7.95;;;7.50;98.50;;;;;;4737514;30;20049;-82
2023/02/24 00:42:03;;;;;;;19.83;7.78;;;7.50;98.60;;;;;;4725335;30;20064;-82
2023/02/24 00:44:44;;;;;;;18.25;7.70;;;7.50;98.70;;;;;;4737642;30;20053;-82
2023/02/24 00:47:12;;;;;;;14.93;6.72;;;7.50;98.70;;;;;;4741892;30;20061;-82
2023/02/24 00:49:42;;;;;;;17.55;7.22;;;7.50;98.90;;;;;;4738308;30;20429;-82
2023/02/24 00:52:12;;;;;;;16.40;7.45;;;7.50;99.10;;;;;;4738490;30;22821;-82
2023/02/24 00:54:40;;;;;;;14.77;7.20;;;7.50;99.20;;;;;;4712217;30;20057;-82
2023/02/24 00:57:09;;;;;;;15.77;7.40;;;7.50;99.50;;;;;;4738933;30;20108;-82
2023/02/24 00:59:37;;;;;;;16.40;6.80;;;7.50;99.90;;;;;;4737583;30;20049;-82
2023/02/24 01:02:06;;;;;;;18.83;7.90;;;7.50;99.90;;;;;;4727574;30;20405;-82
2023/02/24 01:04:34;;;;;;;20.10;9.35;;;7.50;99.90;;;;;;4726964;30;20394;-82
2023/02/24 01:07:01;;;;;;;17.95;8.27;;;7.50;99.90;;;;;;4729825;30;20148;-81
2023/02/24 01:09:31;;;;;;;19.75;8.18;;;7.50;99.90;;;;;;4736722;30;20050;-81
2023/02/24 01:14:46;;;;;;;21.55;8.93;;;7.50;99.90;;;;;;4724467;30;20064;-81
2023/02/24 01:17:15;;;;;;;18.08;7.75;;;7.40;99.90;;;;;;4738834;30;20573;-81
2023/02/24 01:19:43;;;;;;;21.40;8.70;;;7.50;99.90;;;;;;4727981;30;20080;-81
2023/02/24 01:22:14;;;;;;;21.17;8.57;;;7.40;99.90;;;;;;4733358;30;22864;-81
2023/02/24 01:24:42;;;;;;;18.95;8.18;;;7.40;99.90;;;;;;4738542;30;22881;-81
2023/02/24 01:27:13;;;;;;;22.77;8.80;;;7.40;99.90;;;;;;4721886;30;20129;-81
2023/02/24 01:29:42;;;;;;;20.15;8.60;;;7.40;99.90;;;;;;4740224;30;20410;-81
2023/02/24 01:32:15;;;;;;;19.25;8.85;;;7.40;99.90;;;;;;4737034;30;20531;-81
2023/02/24 01:34:44;;;;;;;22.08;9.10;;;7.40;99.90;;;;;;4742959;30;20072;-81
2023/02/24 01:37:15;;;;;;;18.33;7.57;;;7.40;99.90;;;;;;4736150;30;20045;-81
2023/02/24 01:39:43;;;;;;;20.42;8.18;;;7.40;99.90;;;;;;4737970;30;20045;-81
2023/02/24 01:42:19;;;;;;;17.70;7.95;;;7.40;99.90;;;;;;4738234;30;20084;-81
2023/02/24 01:44:46;;;;;;;16.92;8.55;;;7.40;99.90;;;;;;4727831;30;20053;-81
2023/02/24 01:47:17;;;;;;;17.45;8.15;;;7.40;99.90;;;;;;4742798;30;20045;-81
2023/02/24 01:49:46;;;;;;;17.05;7.00;;;7.40;99.90;;;;;;4739833;30;25425;-81
2023/02/24 01:52:24;;;;;;;16.30;7.82;;;7.40;99.90;;;;;;4727380;30;20536;-81
2023/02/24 01:55:05;;;;;;;22.40;7.07;;;7.40;99.90;;;;;;4739964;30;20147;-81
2023/02/24 01:57:37;;;;;;;20.42;8.07;;;7.40;99.90;;;;;;4731587;30;20064;-81
2023/02/24 02:00:10;;;;;;;20.73;8.32;;;7.30;99.90;;;;;;4740967;30;20054;-81
2023/02/24 02:02:45;;;;;;;20.77;8.82;;;7.30;99.90;;;;;;4726009;30;21170;-81
2023/02/24 02:05:13;;;;;;;19.97;8.20;;;7.30;99.90;;;;;;4741706;30;20052;-81
2023/02/24 02:07:42;;;;;;;25.05;9.25;;;7.30;99.90;;;;;;4741718;30;20060;-81
2023/02/24 02:10:11;;;;;;;22.60;8.98;;;7.30;99.90;;;;;;4731416;30;22773;-81
2023/02/24 02:12:44;;;;;;;20.10;8.57;;;7.30;99.90;;;;;;4730909;30;20084;-81
2023/02/24 02:15:14;;;;;;;16.90;8.07;;;7.20;99.90;;;;;;4717121;30;20067;-81
2023/02/24 02:17:54;;;;;;;22.00;8.18;;;7.30;99.90;;;;;;4741465;30;20111;-81
2023/02/24 02:20:41;;;;;;;21.00;8.57;;;7.30;99.90;;;;;;4730518;30;20056;-81
2023/02/24 02:23:32;;;;;;;22.77;8.35;;;7.30;99.90;;;;;;4738590;30;22382;-81
2023/02/24 02:26:17;;;;;;;18.38;8.10;;;7.30;99.90;;;;;;4713587;30;20065;-81
2023/02/24 02:28:53;;;;;;;18.52;7.82;;;7.20;99.90;;;;;;4725654;30;20459;-81
2023/02/24 02:31:45;;;;;;;18.70;7.88;;;7.30;99.90;;;;;;4727240;30;20104;-81
2023/02/24 02:34:33;;;;;;;14.27;6.68;;;7.30;99.90;;;;;;4723341;30;20065;-81
2023/02/24 02:37:06;;;;;;;17.58;7.47;;;7.20;99.90;;;;;;4716022;30;20148;-81
2023/02/24 02:39:40;;;;;;;20.20;7.38;;;7.20;99.90;;;;;;4710050;30;20044;-81
2023/02/24 02:42:13;;;;;;;;;;;7.20;99.90;;;;;;4723502;30;20067;-81
2023/02/24 02:44:55;;;;;;;17.40;6.63;;;7.20;99.90;;;;;;4727952;30;20021;-81
2023/02/24 02:47:49;;;;;;;18.93;7.73;;;7.20;99.90;;;;;;4714326;30;20049;-81
2023/02/24 02:50:26;;;;;;;19.33;6.85;;;7.20;99.90;;;;;;4728771;30;20087;-81
2023/02/24 02:53:04;;;;;;;13.70;6.57;;;7.20;99.90;;;;;;4723653;30;20406;-82
2023/02/24 02:55:39;;;;;;;17.65;6.25;;;7.20;99.90;;;;;;4720225;30;20056;-82
2023/02/24 02:58:13;;;;;;;15.88;6.45;;;7.20;99.90;;;;;;4724424;30;20076;-82
2023/02/24 03:00:57;;;;;;;15.25;6.43;;;7.20;99.90;;;;;;4723110;30;20056;-82
2023/02/24 03:03:26;;;;;;;16.65;6.13;;;7.20;99.90;;;;;;4717577;30;20103;-82
2023/02/24 03:06:00;;;;;;;16.98;6.20;;;7.20;99.90;;;;;;4710662;30;20053;-82
2023/02/24 03:08:33;;;;;;;14.00;7.15;;;7.20;99.90;;;;;;4696191;30;20052;-82
2023/02/24 03:11:04;;;;;;;16.92;6.68;;;7.20;99.90;;;;;;4710793;30;20147;-82
2023/02/24 03:13:38;;;;;;;18.25;6.50;;;7.20;99.90;;;;;;4722937;30;20068;-82
2023/02/24 03:16:09;;;;;;;20.33;6.85;;;7.20;99.90;;;;;;4727679;30;20064;-82
2023/02/24 03:18:51;;;;;;;16.85;7.03;;;7.20;99.90;;;;;;4722474;30;20061;-81
2023/02/24 03:21:37;;;;;;;16.02;6.75;;;7.20;99.90;;;;;;4723459;30;20057;-81
2023/02/24 03:24:05;;;;;;;19.23;6.50;;;7.20;99.90;;;;;;4723271;30;20550;-81
2023/02/24 03:26:40;;;;;;;18.70;6.65;;;7.20;99.90;;;;;;4724889;30;20053;-81
2023/02/24 03:29:36;;;;;;;19.98;7.40;;;7.20;99.90;;;;;;4743374;30;20064;-81
2023/02/24 03:32:31;;;;;;;13.23;6.07;;;7.10;99.90;;;;;;4737655;30;20135;-81
2023/02/24 03:35:12;;;;;;;17.08;7.68;;;7.20;99.90;;;;;;4742229;30;20060;-82
2023/02/24 03:37:39;;;;;;;14.27;6.47;;;7.20;99.90;;;;;;4742526;30;20517;-81
2023/02/24 03:40:13;;;;;;;17.58;7.38;;;7.20;99.90;;;;;;4725652;30;20055;-81
2023/02/24 03:42:51;;;;;;;15.52;7.68;;;7.20;99.90;;;;;;4721687;30;20060;-81
2023/02/24 03:45:21;;;;;;;19.42;7.07;;;7.20;99.90;;;;;;4737967;30;20072;-81
2023/02/24 03:47:52;;;;;;;16.65;7.45;;;7.20;99.90;;;;;;4726487;30;20056;-81
2023/02/24 03:50:20;;;;;;;20.45;7.57;;;7.20;99.90;;;;;;4729082;30;20068;-81
2023/02/24 03:53:07;;;;;;;18.63;7.60;;;7.20;99.90;;;;;;4739787;30;20092;-81
2023/02/24 03:55:57;;;;;;;16.58;7.47;;;7.20;99.90;;;;;;4737490;30;20055;-81
2023/02/24 03:58:51;;;;;;;16.13;6.47;;;7.20;99.90;;;;;;4712349;30;20089;-81
2023/02/24 04:01:29;;;;;;;17.30;7.18;;;7.20;99.90;;;;;;4716779;30;20063;-81
2023/02/24 04:04:22;;;;;;;19.33;7.63;;;7.20;99.90;;;;;;4735254;30;20134;-81
2023/02/24 04:07:51;;;;;;;18.88;7.15;;;7.20;99.90;;;;;;4726599;30;20063;-82
2023/02/24 04:10:23;;;;;;;16.33;7.22;;;7.20;99.90;;;;;;4720262;30;20398;-82
2023/02/24 04:12:53;;;;;;;13.98;7.20;;;7.20;99.90;;;;;;4741612;30;20080;-82
2023/02/24 04:15:28;;;;;;;17.33;7.50;;;7.10;99.90;;;;;;4723399;30;20149;-82
2023/02/24 04:18:03;;;;;;;16.25;7.82;;;7.20;99.90;;;;;;4739042;30;20044;-82
2023/02/24 04:20:38;;;;;;;19.00;7.38;;;7.10;99.90;;;;;;4736260;30;20049;-82
2023/02/24 04:23:13;;;;;;;16.48;6.63;;;7.10;99.90;;;;;;4734889;30;20055;-82
2023/02/24 04:25:46;;;;;;;20.63;7.18;;;7.10;99.90;;;;;;4736676;30;20051;-81
2023/02/24 04:28:17;;;;;;;20.48;8.05;;;7.10;99.90;;;;;;4735784;30;20510;-81
2023/02/24 04:30:49;;;;;;;20.20;6.85;;;7.10;99.90;;;;;;4737370;30;20065;-81
2023/02/24 04:33:18;;;;;;;18.63;7.65;;;7.10;99.90;;;;;;4714812;30;20399;-81
2023/02/24 04:35:49;;;;;;;17.70;7.25;;;7.10;99.90;;;;;;4740415;30;20144;-81
2023/02/24 04:38:18;;;;;;;18.70;7.38;;;7.10;99.90;;;;;;4736836;30;20059;-81
2023/02/24 04:40:45;;;;;;;16.55;7.80;;;7.10;99.90;;;;;;4737971;30;20100;-81
2023/02/24 04:43:12;;;;;;;20.33;7.82;;;7.10;99.90;;;;;;4713633;30;20048;-81
2023/02/24 04:45:39;;;;;;;18.75;6.93;;;7.10;99.90;;;;;;4710948;30;20914;-81
2023/02/24 04:48:11;;;;;;;16.58;8.25;;;7.10;99.90;;;;;;4735347;30;20057;-81
2023/02/24 04:50:41;;;;;;;16.00;7.03;;;7.00;99.90;;;;;;4738274;30;22784;-81
2023/02/24 04:53:16;;;;;;;20.27;7.80;;;7.10;99.90;;;;;;4738732;30;20069;-81
2023/02/24 04:55:47;;;;;;;15.23;7.03;;;7.10;99.90;;;;;;4731006;30;20126;-81
2023/02/24 04:58:18;;;;;;;18.90;7.50;;;7.10;99.90;;;;;;4729804;30;20534;-81
2023/02/24 05:00:47;;;;;;;19.35;8.57;;;7.10;99.90;;;;;;4738365;30;20052;-81
2023/02/24 05:03:16;;;;;;;21.83;7.93;;;7.10;99.90;;;;;;4737621;30;22784;-81
2023/02/24 05:05:57;;;;;;;23.20;8.35;;;7.10;99.90;;;;;;4724563;30;20114;-81
2023/02/24 05:08:26;;;;;;;22.98;8.82;;;7.10;99.90;;;;;;4737881;30;20061;-81
2023/02/24 05:10:53;;;;;;;19.83;8.52;;;7.00;99.90;;;;;;4737897;30;20140;-81
2023/02/24 05:13:26;;;;;;;18.17;8.32;;;7.00;99.90;;;;;;4727703;30;20098;-81
2023/02/24 05:15:56;;;;;;;18.15;8.00;;;7.00;99.90;;;;;;4724697;30;20506;-81
2023/02/24 05:18:25;;;;;;;21.33;8.82;;;7.00;99.90;;;;;;4724444;30;20057;-81
2023/02/24 05:23:45;;;;;;;16.27;7.47;;;7.00;99.90;;;;;;4727100;30;20126;-81
2023/02/24 05:26:15;;;;;;;24.10;8.77;;;7.00;99.90;;;;;;4726635;30;20064;-81
2023/02/24 05:28:47;;;;;;;22.35;8.65;;;7.00;99.90;;;;;;4716057;30;20066;-81
2023/02/24 05:31:20;;;;;;;20.35;8.77;;;7.00;99.90;;;;;;4714796;30;20061;-81
2023/02/24 05:33:53;;;;;;;22.05;8.90;;;7.00;99.90;;;;;;4702415;30;20081;-82
2023/02/24 05:36:21;;;;;;;25.25;9.68;;;7.00;99.90;;;;;;4716947;30;20061;-82
2023/02/24 05:38:56;;;;;;;22.63;9.10;;;7.00;99.90;;;;;;4716613;30;20057;-82
2023/02/24 05:41:34;;;;;;;21.45;9.15;;;7.00;99.90;;;;;;4723455;30;20064;-82
2023/02/24 05:44:07;;;;;;;21.70;9.02;;;7.00;99.90;;;;;;4694724;30;20060;-82
2023/02/24 05:46:38;;;;;;;20.15;9.15;;;7.00;99.90;;;;;;4718329;30;20421;-82
2023/02/24 05:49:13;;;;;;;22.05;9.38;;;7.00;99.90;;;;;;4727195;30;21794;-81
2023/02/24 05:51:53;;;;;;;25.42;10.15;;;7.00;99.90;;;;;;4718256;30;20053;-81
2023/02/24 05:54:29;;;;;;;20.40;9.18;;;7.00;99.90;;;;;;4719506;30;20110;-81
2023/02/24 05:57:01;;;;;;;26.08;9.20;;;7.00;99.90;;;;;;4728419;30;20418;-81
2023/02/24 05:59:31;;;;;;;22.05;9.95;;;7.00;99.90;;;;;;4713819;30;20064;-81
2023/02/24 06:02:05;;;;;;;24.25;9.23;;;7.00;99.90;;;;;;4728523;30;20067;-81
2023/02/24 06:04:44;;;;;;;26.27;10.48;;;7.00;99.90;;;;;;4722608;30;20057;-81
2023/02/24 06:07:19;;;;;;;23.75;9.55;;;7.00;99.90;;;;;;4702480;30;20070;-81
2023/02/24 06:09:52;;;;;;;25.35;11.20;;;7.00;99.90;;;;;;4725873;30;20505;-81
2023/02/24 06:12:32;;;;;;;27.48;10.50;;;7.00;99.90;;;;;;4726027;30;20088;-81
2023/02/24 06:15:01;;;;;;;25.13;10.90;;;7.00;99.90;;;;;;4712655;30;20534;-82
2023/02/24 06:17:28;;;;;;;24.10;10.55;;;7.00;99.90;;;;;;4700199;30;20134;-82
2023/02/24 06:19:55;;;;;;;25.52;11.45;;;7.00;99.90;;;;;;4709476;30;20110;-82
2023/02/24 06:22:24;;;;;;;24.73;11.63;;;7.00;99.90;;;;;;4703790;30;20068;-82
2023/02/24 06:24:53;;;;;;;24.40;11.70;;;7.00;99.90;;;;;;4712738;30;20057;-81
2023/02/24 06:27:23;;;;;;;25.42;12.48;;;7.00;99.90;;;;;;4733843;30;20057;-81
2023/02/24 06:29:52;;;;;;;26.23;11.98;;;7.00;99.90;;;;;;4738953;30;20068;-81
2023/02/24 06:32:23;;;;;;;27.58;13.82;;;7.10;99.90;;;;;;4719702;30;20156;-81
2023/02/24 06:34:52;;;;;;;27.85;14.50;;;7.10;99.90;;;;;;4739063;30;20084;-78
2023/02/24 06:37:21;;;;;;;28.98;14.70;;;7.10;99.90;;;;;;4723914;30;20053;-81
2023/02/24 06:39:49;;;;;;;35.28;16.75;;;7.10;99.90;;;;;;4726732;30;20072;-82
2023/02/24 06:42:16;;;;;;;36.00;18.17;;;7.10;99.90;;;;;;4725751;30;20062;-81
2023/02/24 06:44:44;;;;;;;36.22;18.33;;;7.10;99.90;;;;;;4720171;30;20064;-81
2023/02/24 06:47:13;;;;;;;43.30;21.17;;;7.10;99.90;;;;;;4736006;30;20056;-81
2023/02/24 06:49:41;;;;;;;44.85;22.02;;;7.20;99.90;;;;;;4742241;30;21070;-81
2023/02/24 06:52:10;;;;;;;35.22;16.27;;;7.20;99.90;;;;;;4729152;30;20541;-81
2023/02/24 06:54:37;;;;;;;34.28;16.92;;;7.20;99.90;;;;;;4689256;30;20155;-82
2023/02/24 06:57:05;;;;;;;34.72;16.33;;;7.20;99.90;;;;;;4695727;30;20065;-81
2023/02/24 06:59:33;;;;;;;39.20;18.42;;;7.20;99.90;;;;;;4697929;30;20286;-82
2023/02/24 07:02:03;;;;;;;36.78;17.88;;;7.20;99.90;;;;;;4685333;30;20153;-82
2023/02/24 07:04:42;;;;;;;37.75;15.75;;;7.30;99.90;;;;;;4696763;30;20053;-82
2023/02/24 07:07:10;;;;;;;27.52;13.10;;;7.30;99.90;;;;;;4725857;30;20056;-82
2023/02/24 07:09:37;;;;;;;29.45;14.05;;;7.40;99.90;;;;;;4704138;30;20063;-81
2023/02/24 07:12:05;;;;;;;31.65;13.98;;;7.40;99.90;;;;;;4725758;30;20041;-82
2023/02/24 07:14:35;;;;;;;31.75;14.63;;;7.40;99.90;;;;;;4681356;30;20079;-82
2023/02/24 07:17:04;;;;;;;35.33;13.98;;;7.40;99.90;;;;;;4728442;30;20147;-82
2023/02/24 07:19:31;;;;;;;26.77;12.00;;;7.40;99.90;;;;;;4706735;30;20189;-80
2023/02/24 07:22:02;;;;;;;26.75;11.88;;;7.40;99.90;;;;;;4714054;30;20187;-80
2023/02/24 07:24:35;;;;;;;28.52;13.30;;;7.50;99.90;;;;;;4711656;30;20057;-82
2023/02/24 07:27:07;;;;;;;30.80;12.55;;;7.50;99.90;;;;;;4690080;30;20142;-80
2023/02/24 07:29:36;;;;;;;26.80;12.38;;;7.50;99.90;;;;;;4670044;30;20135;-81
2023/02/24 07:32:07;;;;;;;32.15;14.82;;;7.60;99.90;;;;;;4667635;30;20815;-81
2023/02/24 07:34:38;;;;;;;28.00;13.20;;;7.60;99.90;;;;;;4672053;30;20147;-82
2023/02/24 07:37:07;;;;;;;28.25;11.90;;;7.70;99.90;;;;;;4684619;30;20107;-80
2023/02/24 07:39:38;;;;;;;27.42;12.35;;;7.70;99.90;;;;;;4658907;30;20060;-81
2023/02/24 07:42:07;;;;;;;29.67;13.32;;;7.70;99.90;;;;;;4677996;30;20518;-82
2023/02/24 07:44:43;;;;;;;33.15;14.38;;;7.70;99.90;;;;;;4671838;30;20242;-81
2023/02/24 07:47:11;;;;;;;30.02;13.40;;;7.80;99.90;;;;;;4671558;30;20056;-81
2023/02/24 07:49:39;;;;;;;30.25;13.10;;;7.90;99.90;;;;;;4676372;30;20074;-81
2023/02/24 07:52:07;;;;;;;31.48;14.38;;;7.90;99.90;;;;;;4696110;30;22534;-81
2023/02/24 07:54:35;;;;;;;33.58;15.02;;;8.00;99.90;;;;;;4697146;30;20068;-81
2023/02/24 07:57:05;;;;;;;34.40;15.07;;;8.10;99.90;;;;;;4682599;30;20067;-81
2023/02/24 07:59:36;;;;;;;26.45;12.27;;;8.30;99.90;;;;;;4669463;30;20067;-80
2023/02/24 08:02:06;;;;;;;33.28;14.80;;;8.40;99.90;;;;;;4701680;30;22096;-81
2023/02/24 08:04:35;;;;;;;33.88;15.05;;;8.40;99.90;;;;;;4684852;30;20056;-81
2023/02/24 08:07:03;;;;;;;33.58;15.13;;;8.50;99.90;;;;;;4684218;30;20075;-81
2023/02/24 08:12:21;;;;;;;28.10;14.52;;;8.70;99.90;;;;;;4693548;30;20072;-81
2023/02/24 08:14:52;;;;;;;33.85;15.10;;;8.90;99.90;;;;;;4682649;30;20068;-80
2023/02/24 08:17:25;;;;;;;30.98;14.10;;;9.00;99.90;;;;;;4708702;30;20101;-80
2023/02/24 08:20:20;;;;;;;35.13;14.50;;;9.00;99.90;;;;;;4698197;30;20053;-81
2023/02/24 08:22:45;;;;;;;34.25;14.85;;;9.00;99.90;;;;;;4706999;30;20059;-81
2023/02/24 08:25:17;;;;;;;33.88;14.23;;;9.00;99.90;;;;;;4696768;30;20709;-81
2023/02/24 08:27:54;;;;;;;34.25;15.30;;;9.00;99.90;;;;;;4681188;30;20217;-82
2023/02/24 08:30:37;;;;;;;34.92;16.67;;;9.00;99.90;;;;;;4705408;30;20758;-81
2023/02/24 08:33:10;;;;;;;35.58;15.77;;;9.10;99.90;;;;;;4704889;30;20056;-82
2023/02/24 08:35:45;;;;;;;33.95;15.60;;;9.10;99.90;;;;;;4685022;30;20060;-82
2023/02/24 08:38:21;;;;;;;31.15;14.65;;;9.10;99.90;;;;;;4697241;30;20297;-81
2023/02/24 08:40:53;;;;;;;31.05;15.52;;;9.10;99.90;;;;;;4705046;30;20065;-81
2023/02/24 08:43:33;;;;;;;35.58;15.65;;;9.20;99.90;;;;;;4696478;30;20152;-81
2023/02/24 08:46:12;;;;;;;29.75;15.35;;;9.30;99.90;;;;;;4687334;30;20162;-80
2023/02/24 08:48:42;;;;;;;30.48;14.70;;;9.30;99.90;;;;;;4697382;30;20056;-81
2023/02/24 08:51:21;;;;;;;33.25;16.23;;;9.40;99.90;;;;;;4686328;30;20107;-81
2023/02/24 08:53:54;;;;;;;31.10;14.70;;;9.40;99.90;;;;;;4685830;30;20195;-81
2023/02/24 08:56:24;;;;;;;35.80;16.13;;;9.30;99.90;;;;;;4712549;30;20055;-82
2023/02/24 08:58:55;;;;;;;29.13;15.10;;;9.30;99.90;;;;;;4695455;30;20757;-82
2023/02/24 09:01:33;;;;;;;30.80;13.85;;;9.40;99.90;;;;;;4708174;30;20081;-81
2023/02/24 09:04:27;;;;;;;31.98;14.32;;;9.60;99.90;;;;;;4691077;30;20064;-80
2023/02/24 09:06:56;;;;;;;26.70;13.13;;;9.90;99.90;;;;;;4716863;30;20747;-79
2023/02/24 09:09:40;;;;;;;;;;;9.90;99.90;;;;;;4707387;30;20614;-79
2023/02/24 09:12:20;;;;;;;27.60;11.75;;;9.90;99.90;;;;;;4708095;30;22308;-80
2023/02/24 09:14:54;;;;;;;29.48;14.52;;;10.10;99.90;;;;;;4700471;30;20082;-79
2023/02/24 09:17:39;;;;;;;29.13;15.05;;;10.30;99.90;;;;;;4692734;30;20418;-79
2023/02/24 09:23:07;;;;;;;28.85;13.68;;;10.40;99.90;;;;;;4691147;30;20509;-80
2023/02/24 09:25:42;;;;;;;33.28;16.38;;;10.50;99.90;;;;;;4679308;30;20061;-79
2023/02/24 09:28:18;;;;;;;32.70;15.65;;;9.70;99.90;;;;;;4713931;30;20642;-79
2023/02/24 09:30:52;;;;;;;32.72;15.13;;;10.70;99.90;;;;;;4711462;30;20064;-79
2023/02/24 09:33:40;;;;;;;32.13;15.05;;;10.70;99.60;;;;;;4711850;30;20052;-80
2023/02/24 09:36:18;;;;;;;32.30;14.85;;;10.70;99.90;;;;;;4682413;30;20392;-80
2023/02/24 09:44:43;;;;;;;28.63;13.65;;;10.90;99.30;;;;;;4706431;30;20049;-80
2023/02/24 09:50:22;;;;;;;32.88;14.93;;;10.90;99.00;;;;;;4686842;30;20729;-79
2023/02/24 09:53:17;;;;;;;32.97;15.48;;;11.10;99.00;;;;;;4685060;30;20799;-80
2023/02/24 09:55:59;;;;;;;32.15;15.02;;;11.30;98.70;;;;;;4677146;30;22099;-78
2023/02/24 09:58:48;;;;;;;31.70;14.93;;;11.50;98.20;;;;;;4677398;30;20060;-79
2023/02/24 10:01:29;;;;;;;30.52;15.02;;;11.50;98.20;;;;;;4675539;30;20094;-78
2023/02/24 10:04:09;;;;;;;34.17;15.80;;;11.50;97.90;;;;;;4693141;30;20529;-79
2023/02/24 10:07:08;;;;;;;33.95;15.77;;;11.80;97.50;;;;;;4667968;30;20067;-77
2023/02/24 10:09:45;;;;;;;33.70;15.82;;;11.50;97.00;;;;;;4670725;30;20068;-78
2023/02/24 10:12:18;;;;;;;32.55;14.82;;;11.50;96.90;;;;;;4705069;30;20429;-79
2023/02/24 10:15:19;;;;;;;31.65;15.23;;;11.60;97.00;;;;;;4696005;30;20383;-78
2023/02/24 10:18:02;;;;;;;28.58;14.18;;;11.40;97.10;;;;;;4677199;30;20067;-79
2023/02/24 10:20:38;;;;;;;27.88;13.60;;;11.40;97.50;;;;;;4679369;30;20628;-77
2023/02/24 10:23:11;;;;;;;30.08;15.20;;;10.80;97.50;;;;;;4693021;30;20071;-79
2023/02/24 10:25:55;;;;;;;31.67;14.20;;;11.60;97.80;;;;;;4700865;30;20532;-78
2023/02/24 10:28:50;;;;;;;30.15;14.60;;;11.70;97.00;;;;;;4690847;30;20116;-79
2023/02/24 10:31:34;;;;;;;30.85;14.75;;;12.00;96.50;;;;;;4694673;30;20103;-78
2023/02/24 10:34:09;;;;;;;27.90;13.43;;;11.90;96.40;;;;;;4692818;30;20052;-77
2023/02/24 10:36:37;;;;;;;30.80;13.75;;;11.90;95.60;;;;;;4692763;30;20238;-79
2023/02/24 10:39:14;;;;;;;29.73;15.25;;;12.00;95.60;;;;;;4695996;30;20065;-78
2023/02/24 10:41:47;;;;;;;32.15;14.50;;;12.00;95.40;;;;;;4668677;30;20063;-79
2023/02/24 10:44:23;;;;;;;32.58;13.52;;;12.10;95.60;;;;;;4678520;30;20251;-78
2023/02/24 10:47:12;;;;;;;33.53;14.45;;;12.20;94.90;;;;;;4683596;30;20430;-78
2023/02/24 10:49:58;;;;;;;36.47;15.18;;;12.50;94.80;;;;;;4690382;30;20068;-77
2023/02/24 10:52:49;;;;;;;33.72;14.48;;;12.70;94.00;;;;;;4677207;30;20123;-78
2023/02/24 10:58:43;;;;;;;33.10;14.47;;;12.80;93.30;;;;;;4682468;30;20064;-80
2023/02/24 11:01:39;;;;;;;32.88;14.63;;;12.80;93.20;;;;;;4691213;30;20057;-78
2023/02/24 11:04:31;;;;;;;34.72;14.00;;;13.10;93.10;;;;;;4703750;30;20068;-78
2023/02/24 11:07:10;;;;;;;32.95;15.48;;;13.10;92.70;;;;;;4692365;30;20939;-78
2023/02/24 11:09:51;;;;;;;31.92;14.85;;;13.30;92.50;;;;;;4683192;30;20060;-78
2023/02/24 11:18:23;;;;;;;27.15;13.52;;;13.40;92.30;;;;;;4698575;30;20061;-79
2023/02/24 11:21:01;;;;;;;30.30;13.93;;;12.60;91.90;;;;;;4708202;30;20053;-78
2023/02/24 11:23:32;;;;;;;32.50;14.70;;;13.10;91.90;;;;;;4702920;30;20162;-79
2023/02/24 11:26:03;;;;;;;31.35;15.07;;;13.10;91.80;;;;;;4692804;30;20747;-80
2023/02/24 11:28:48;;;;;;;30.27;14.55;;;13.30;92.20;;;;;;4650468;30;20061;-79
2023/02/24 11:31:50;;;;;;;31.48;14.50;;;13.30;91.90;;;;;;4685230;30;20056;-79
2023/02/24 11:34:29;;;;;;;29.70;13.57;;;13.30;91.60;;;;;;4659144;30;20660;-78
2023/02/24 11:37:00;;;;;;;31.05;13.90;;;13.40;91.50;;;;;;4671396;30;20157;-79
2023/02/24 11:39:52;;;;;;;28.48;13.85;;;13.50;91.20;;;;;;4653756;30;20183;-78
2023/02/24 11:42:25;;;;;;;32.73;15.03;;;13.60;91.30;;;;;;4664010;30;20060;-78
2023/02/24 11:45:01;;;;;;;29.40;14.32;;;13.40;91.10;;;;;;4678960;30;20061;-79
2023/02/24 11:47:47;;;;;;;29.02;14.65;;;13.40;91.40;;;;;;4677479;30;20056;-78
2023/02/24 11:50:38;;;;;;;29.67;13.88;;;13.50;91.30;;;;;;4660649;30;20061;-79
2023/02/24 11:53:30;;;;;;;37.53;16.50;;;13.50;91.20;;;;;;4662816;30;20566;-79
2023/02/24 11:56:08;;;;;;;33.23;14.27;;;13.60;91.40;;;;;;4677835;30;20073;-79
2023/02/24 11:58:51;;;;;;;34.00;14.50;;;13.50;91.00;;;;;;4667732;30;20060;-79
2023/02/24 12:01:47;;;;;;;28.70;14.60;;;13.60;90.80;;;;;;4661320;30;20053;-79
2023/02/24 12:04:27;;;;;;;30.42;13.73;;;13.90;90.80;;;;;;4679727;30;22554;-79
2023/02/24 12:07:07;;;;;;;31.30;14.23;;;13.90;90.30;;;;;;4667520;30;20053;-78
2023/02/24 12:09:53;;;;;;;29.38;14.43;;;13.90;90.00;;;;;;4676308;30;20060;-78
2023/02/24 12:12:45;;;;;;;29.55;13.80;;;13.90;89.90;;;;;;4672775;30;20544;-79
2023/02/24 12:15:29;;;;;;;31.10;13.93;;;13.90;90.00;;;;;;4662212;30;20474;-78
2023/02/24 12:18:15;;;;;;;26.98;13.07;;;14.10;89.90;;;;;;4658742;30;22248;-78
2023/02/24 12:21:02;;;;;;;31.98;14.23;;;13.70;89.60;;;;;;4674490;30;20060;-79
2023/02/24 12:23:38;;;;;;;31.95;14.52;;;13.70;90.00;;;;;;4679020;30;20762;-79
2023/02/24 12:26:26;;;;;;;29.95;14.90;;;12.90;89.50;;;;;;4675465;30;20057;-79
2023/02/24 12:28:56;;;;;;;33.08;14.73;;;13.80;89.90;;;;;;4653195;30;20056;-79
2023/02/24 12:31:32;;;;;;;32.28;13.90;;;13.80;89.30;;;;;;4664858;30;20656;-79
2023/02/24 12:34:10;;;;;;;35.95;15.40;;;13.90;89.00;;;;;;4672269;30;20584;-79
2023/02/24 12:36:56;;;;;;;28.73;13.90;;;14.00;88.90;;;;;;4682225;30;20422;-78
2023/02/24 12:39:26;;;;;;;35.28;16.02;;;13.90;89.10;;;;;;4661647;30;20091;-80
2023/02/24 12:42:04;;;;;;;33.78;15.55;;;13.90;90.00;;;;;;4648185;30;20180;-78
2023/02/24 12:44:51;;;;;;;30.55;13.88;;;14.10;90.20;;;;;;4663518;30;22639;-79
2023/02/24 12:47:43;;;;;;;29.20;13.07;;;13.90;90.00;;;;;;4682448;30;20131;-78
2023/02/24 12:50:51;;;;;;;35.45;16.30;;;13.90;89.90;;;;;;4678045;30;20057;-79
2023/02/24 12:53:36;;;;;;;35.40;14.43;;;13.80;89.10;;;;;;4661159;30;20071;-79
2023/02/24 12:56:06;;;;;;;35.08;14.70;;;13.90;89.80;;;;;;4665086;30;20282;-79
2023/02/24 12:58:38;;;;;;;30.15;14.65;;;13.90;88.60;;;;;;4681165;30;20094;-78
2023/02/24 13:01:10;;;;;;;34.97;15.37;;;14.20;88.90;;;;;;4689097;30;20399;-79
2023/02/24 13:03:45;;;;;;;;;;;13.80;88.60;;;;;;4666570;30;20708;-79
2023/02/24 13:06:35;;;;;;;34.65;15.35;;;13.80;88.80;;;;;;4677187;30;19935;-79
2023/02/24 13:09:31;;;;;;;31.48;15.82;;;13.80;89.90;;;;;;4679993;30;20056;-80
2023/02/24 13:12:12;;;;;;;33.67;15.13;;;13.70;90.10;;;;;;4677134;30;20055;-79
2023/02/24 13:14:40;;;;;;;33.25;15.00;;;13.80;90.30;;;;;;4676118;30;20541;-79
2023/02/24 13:17:11;;;;;;;34.22;15.63;;;13.60;89.80;;;;;;4654566;30;20060;-80
2023/02/24 13:19:40;;;;;;;30.42;15.18;;;13.50;89.70;;;;;;4657287;30;20107;-78
2023/02/24 13:22:10;;;;;;;33.65;15.98;;;13.50;89.10;;;;;;4668808;30;22321;-78
2023/02/24 13:24:53;;;;;;;39.25;15.02;;;13.30;89.00;;;;;;4668521;30;20068;-78
2023/02/24 13:27:32;;;;;;;33.08;14.10;;;13.30;88.90;;;;;;4690776;30;20067;-79
2023/02/24 13:30:16;;;;;;;31.73;14.80;;;13.30;89.00;;;;;;4697554;30;20140;-79
2023/02/24 13:33:17;;;;;;;30.65;12.98;;;13.20;89.50;;;;;;4714783;30;20505;-79
2023/02/24 13:35:47;;;;;;;31.60;13.43;;;13.20;90.10;;;;;;4678064;30;20118;-79
2023/02/24 13:38:30;;;;;;;29.95;13.13;;;13.20;89.60;;;;;;4687991;30;20072;-79
2023/02/24 13:41:16;;;;;;;;;;;13.20;89.50;;;;;;4684629;30;20084;-79
2023/02/24 13:43:54;;;;;;;30.48;14.50;;;13.20;89.20;;;;;;4695702;30;19935;-80
2023/02/24 13:46:22;;;;;;;32.72;14.23;;;13.20;89.40;;;;;;4713320;30;20057;-79
2023/02/24 13:48:59;;;;;;;33.05;14.40;;;13.40;89.60;;;;;;4685312;30;20060;-80
2023/02/24 13:51:48;;;;;;;35.25;14.18;;;13.30;89.80;;;;;;4679518;30;20136;-79
2023/02/24 13:54:36;;;;;;;32.60;14.68;;;13.30;89.50;;;;;;4663352;30;20444;-78